sensor_id;sensor_type;location;lat;lon;timestamp;pressure;altitude;pressure_sealevel;temperature;humidity
19736;BME280;32064;49.310;8.646;2022-11-28T00:02:09;100449.13;;;8.79;66.64
19736;BME280;32064;49.310;8.646;2022-11-28T00:04:34;100445.66;;;8.78;66.46
19736;BME280;32064;49.310;8.646;2022-11-28T00:07:00;100456.16;;;8.78;66.31
19736;BME280;32064;49.310;8.646;2022-11-28T00:09:25;100450.91;;;8.78;66.76
19736;BME280;32064;49.310;8.646;2022-11-28T00:11:51;100446.38;;;8.80;66.25
19736;BME280;32064;49.310;8.646;2022-11-28T00:14:18;100427.38;;;8.76;66.96
19736;BME280;32064;49.310;8.646;2022-11-28T00:16:44;100416.81;;;8.78;66.22
19736;BME280;32064;49.310;8.646;2022-11-28T00:19:11;100414.91;;;8.80;66.28
19736;BME280;32064;49.310;8.646;2022-11-28T00:21:37;100417.09;;;8.73;65.89
19736;BME280;32064;49.310;8.646;2022-11-28T00:24:02;100413.72;;;8.71;66.96
19736;BME280;32064;49.310;8.646;2022-11-28T00:26:34;100416.06;;;8.76;66.26
19736;BME280;32064;49.310;8.646;2022-11-28T00:29:01;100407.06;;;8.66;66.22
19736;BME280;32064;49.310;8.646;2022-11-28T00:31:29;100401.00;;;8.65;66.73
19736;BME280;32064;49.310;8.646;2022-11-28T00:33:55;100401.09;;;8.64;66.82
19736;BME280;32064;49.310;8.646;2022-11-28T00:36:21;100415.25;;;8.47;67.09
19736;BME280;32064;49.310;8.646;2022-11-28T00:38:48;100401.66;;;8.54;66.85
19736;BME280;32064;49.310;8.646;2022-11-28T00:41:16;100395.88;;;8.49;66.76
19736;BME280;32064;49.310;8.646;2022-11-28T00:43:43;100386.66;;;8.57;66.85
19736;BME280;32064;49.310;8.646;2022-11-28T00:46:09;100390.63;;;8.49;67.07
19736;BME280;32064;49.310;8.646;2022-11-28T00:48:35;100384.03;;;8.57;67.20
19736;BME280;32064;49.310;8.646;2022-11-28T00:51:09;100377.22;;;8.54;66.28
19736;BME280;32064;49.310;8.646;2022-11-28T00:53:35;100385.91;;;8.40;66.80
19736;BME280;32064;49.310;8.646;2022-11-28T00:56:04;100381.25;;;8.45;66.94
19736;BME280;32064;49.310;8.646;2022-11-28T00:58:31;100384.44;;;8.50;67.02
19736;BME280;32064;49.310;8.646;2022-11-28T01:00:57;100396.13;;;8.45;67.04
19736;BME280;32064;49.310;8.646;2022-11-28T01:03:22;100392.94;;;8.40;67.47
19736;BME280;32064;49.310;8.646;2022-11-28T01:05:48;100401.91;;;8.36;67.47
19736;BME280;32064;49.310;8.646;2022-11-28T01:08:13;100410.38;;;8.41;67.34
19736;BME280;32064;49.310;8.646;2022-11-28T01:10:43;100412.91;;;8.42;67.21
19736;BME280;32064;49.310;8.646;2022-11-28T01:13:09;100402.66;;;8.38;67.36
19736;BME280;32064;49.310;8.646;2022-11-28T01:15:39;100405.38;;;8.36;67.41
19736;BME280;32064;49.310;8.646;2022-11-28T01:18:05;100396.31;;;8.42;67.36
19736;BME280;32064;49.310;8.646;2022-11-28T01:20:30;100394.47;;;8.44;67.65
19736;BME280;32064;49.310;8.646;2022-11-28T01:22:56;100393.25;;;8.49;67.58
19736;BME280;32064;49.310;8.646;2022-11-28T01:25:21;100391.47;;;8.50;67.04
19736;BME280;32064;49.310;8.646;2022-11-28T01:27:47;100381.69;;;8.52;67.21
19736;BME280;32064;49.310;8.646;2022-11-28T01:30:13;100389.75;;;8.49;67.52
19736;BME280;32064;49.310;8.646;2022-11-28T01:32:38;100390.97;;;8.43;67.51
19736;BME280;32064;49.310;8.646;2022-11-28T01:35:04;100379.56;;;8.44;67.39
19736;BME280;32064;49.310;8.646;2022-11-28T01:37:29;100384.63;;;8.47;67.58
19736;BME280;32064;49.310;8.646;2022-11-28T01:39:55;100375.34;;;8.56;67.45
19736;BME280;32064;49.310;8.646;2022-11-28T01:42:20;100371.78;;;8.57;67.32
19736;BME280;32064;49.310;8.646;2022-11-28T01:47:12;100373.31;;;8.47;67.34
19736;BME280;32064;49.310;8.646;2022-11-28T01:49:37;100373.94;;;8.50;67.74
19736;BME280;32064;49.310;8.646;2022-11-28T01:52:04;100367.38;;;8.43;67.45
19736;BME280;32064;49.310;8.646;2022-11-28T01:54:33;100370.31;;;8.39;67.89
19736;BME280;32064;49.310;8.646;2022-11-28T01:57:02;100361.31;;;8.43;67.87
19736;BME280;32064;49.310;8.646;2022-11-28T01:59:32;100366.09;;;8.50;67.20
19736;BME280;32064;49.310;8.646;2022-11-28T02:01:59;100362.63;;;8.50;67.68
19736;BME280;32064;49.310;8.646;2022-11-28T02:04:26;100362.50;;;8.51;67.16
19736;BME280;32064;49.310;8.646;2022-11-28T02:06:53;100349.59;;;8.48;67.83
19736;BME280;32064;49.310;8.646;2022-11-28T02:09:19;100342.75;;;8.46;67.58
19736;BME280;32064;49.310;8.646;2022-11-28T02:14:42;100331.59;;;8.57;66.95
19736;BME280;32064;49.310;8.646;2022-11-28T02:34:25;100325.91;;;8.50;66.90
19736;BME280;32064;49.310;8.646;2022-11-28T02:37:02;100335.66;;;8.48;68.02
19736;BME280;32064;49.310;8.646;2022-11-28T02:42:15;100323.78;;;8.42;67.53
19736;BME280;32064;49.310;8.646;2022-11-28T02:44:49;100312.81;;;8.36;67.66
19736;BME280;32064;49.310;8.646;2022-11-28T02:47:30;100311.50;;;8.43;67.71
19736;BME280;32064;49.310;8.646;2022-11-28T02:52:35;100305.16;;;8.47;68.04
19736;BME280;32064;49.310;8.646;2022-11-28T02:55:04;100317.94;;;8.51;67.52
19736;BME280;32064;49.310;8.646;2022-11-28T02:57:56;100321.78;;;8.46;67.82
19736;BME280;32064;49.310;8.646;2022-11-28T03:02:54;100308.78;;;8.44;68.10
19736;BME280;32064;49.310;8.646;2022-11-28T03:05:35;100308.03;;;8.42;68.11
19736;BME280;32064;49.310;8.646;2022-11-28T03:08:47;100299.22;;;8.29;68.67
19736;BME280;32064;49.310;8.646;2022-11-28T03:16:49;100300.44;;;8.23;68.82
19736;BME280;32064;49.310;8.646;2022-11-28T03:19:26;100284.91;;;8.20;68.65
19736;BME280;32064;49.310;8.646;2022-11-28T03:24:40;100281.56;;;8.18;68.88
19736;BME280;32064;49.310;8.646;2022-11-28T03:27:23;100274.25;;;8.09;69.84
19736;BME280;32064;49.310;8.646;2022-11-28T03:29:53;100271.91;;;8.19;69.07
19736;BME280;32064;49.310;8.646;2022-11-28T03:32:24;100269.78;;;8.11;69.85
19736;BME280;32064;49.310;8.646;2022-11-28T03:35:02;100267.97;;;8.12;68.94
19736;BME280;32064;49.310;8.646;2022-11-28T03:37:32;100275.09;;;8.24;69.13
19736;BME280;32064;49.310;8.646;2022-11-28T03:40:04;100265.47;;;8.24;69.22
19736;BME280;32064;49.310;8.646;2022-11-28T03:42:36;100280.50;;;8.21;69.36
19736;BME280;32064;49.310;8.646;2022-11-28T03:45:16;100280.69;;;8.18;69.16
19736;BME280;32064;49.310;8.646;2022-11-28T03:47:47;100279.97;;;8.16;68.35
19736;BME280;32064;49.310;8.646;2022-11-28T03:50:19;100282.28;;;8.20;69.10
19736;BME280;32064;49.310;8.646;2022-11-28T03:52:52;100279.09;;;8.15;69.36
19736;BME280;32064;49.310;8.646;2022-11-28T03:55:24;100291.56;;;8.26;68.78
19736;BME280;32064;49.310;8.646;2022-11-28T03:57:59;100283.72;;;8.12;69.52
19736;BME280;32064;49.310;8.646;2022-11-28T04:00:32;100289.69;;;8.28;69.00
19736;BME280;32064;49.310;8.646;2022-11-28T04:03:14;100285.66;;;8.22;69.21
19736;BME280;32064;49.310;8.646;2022-11-28T04:08:25;100294.94;;;8.28;69.06
19736;BME280;32064;49.310;8.646;2022-11-28T04:10:53;100294.66;;;8.32;69.08
19736;BME280;32064;49.310;8.646;2022-11-28T04:13:28;100283.50;;;8.29;68.94
19736;BME280;32064;49.310;8.646;2022-11-28T04:16:19;100280.34;;;8.24;69.43
19736;BME280;32064;49.310;8.646;2022-11-28T04:21:42;100276.22;;;8.05;69.67
19736;BME280;32064;49.310;8.646;2022-11-28T04:24:17;100273.72;;;8.04;69.54
19736;BME280;32064;49.310;8.646;2022-11-28T04:26:57;100269.69;;;7.98;69.51
19736;BME280;32064;49.310;8.646;2022-11-28T04:29:24;100271.56;;;8.10;69.36
19736;BME280;32064;49.310;8.646;2022-11-28T04:31:54;100273.81;;;8.02;70.03
19736;BME280;32064;49.310;8.646;2022-11-28T04:34:23;100264.47;;;7.98;70.09
19736;BME280;32064;49.310;8.646;2022-11-28T04:36:51;100273.41;;;8.08;69.61
19736;BME280;32064;49.310;8.646;2022-11-28T04:39:20;100269.59;;;8.00;70.46
19736;BME280;32064;49.310;8.646;2022-11-28T04:41:52;100265.69;;;7.93;70.13
19736;BME280;32064;49.310;8.646;2022-11-28T04:44:27;100288.88;;;7.99;69.84
19736;BME280;32064;49.310;8.646;2022-11-28T04:46:55;100289.78;;;7.98;69.76
19736;BME280;32064;49.310;8.646;2022-11-28T04:49:23;100284.94;;;8.06;69.68
19736;BME280;32064;49.310;8.646;2022-11-28T04:52:00;100276.88;;;7.95;70.64
19736;BME280;32064;49.310;8.646;2022-11-28T04:57:13;100274.84;;;7.85;69.78
19736;BME280;32064;49.310;8.646;2022-11-28T04:59:42;100267.72;;;7.87;70.82
19736;BME280;32064;49.310;8.646;2022-11-28T05:02:10;100268.31;;;7.93;69.94
19736;BME280;32064;49.310;8.646;2022-11-28T05:04:37;100274.06;;;7.98;69.88
19736;BME280;32064;49.310;8.646;2022-11-28T05:07:05;100265.19;;;7.86;70.55
19736;BME280;32064;49.310;8.646;2022-11-28T05:09:31;100278.22;;;7.87;70.76
19736;BME280;32064;49.310;8.646;2022-11-28T05:11:56;100266.72;;;7.76;70.90
19736;BME280;32064;49.310;8.646;2022-11-28T05:14:22;100266.59;;;7.77;71.25
19736;BME280;32064;49.310;8.646;2022-11-28T05:16:48;100264.34;;;7.85;70.53
19736;BME280;32064;49.310;8.646;2022-11-28T05:19:13;100254.25;;;7.79;70.95
19736;BME280;32064;49.310;8.646;2022-11-28T05:21:40;100262.94;;;7.94;70.56
19736;BME280;32064;49.310;8.646;2022-11-28T05:24:06;100259.50;;;7.79;70.32
19736;BME280;32064;49.310;8.646;2022-11-28T05:26:32;100262.19;;;7.92;70.79
19736;BME280;32064;49.310;8.646;2022-11-28T05:28:58;100261.75;;;7.85;70.61
19736;BME280;32064;49.310;8.646;2022-11-28T05:31:24;100255.19;;;7.78;70.82
19736;BME280;32064;49.310;8.646;2022-11-28T05:33:49;100259.50;;;7.79;70.90
19736;BME280;32064;49.310;8.646;2022-11-28T05:36:16;100259.13;;;7.85;70.65
19736;BME280;32064;49.310;8.646;2022-11-28T05:38:42;100247.44;;;7.91;71.54
19736;BME280;32064;49.310;8.646;2022-11-28T05:41:16;100252.94;;;7.86;70.57
19736;BME280;32064;49.310;8.646;2022-11-28T05:43:42;100254.63;;;7.87;70.79
19736;BME280;32064;49.310;8.646;2022-11-28T05:46:07;100254.91;;;7.83;70.80
19736;BME280;32064;49.310;8.646;2022-11-28T05:48:32;100264.09;;;7.76;71.01
19736;BME280;32064;49.310;8.646;2022-11-28T05:50:58;100252.47;;;7.80;71.70
19736;BME280;32064;49.310;8.646;2022-11-28T05:53:23;100260.91;;;7.85;71.02
19736;BME280;32064;49.310;8.646;2022-11-28T05:55:50;100249.88;;;7.80;71.00
19736;BME280;32064;49.310;8.646;2022-11-28T05:58:15;100250.25;;;7.88;70.64
19736;BME280;32064;49.310;8.646;2022-11-28T06:00:40;100237.97;;;7.88;70.92
19736;BME280;32064;49.310;8.646;2022-11-28T06:03:06;100235.16;;;7.92;70.72
19736;BME280;32064;49.310;8.646;2022-11-28T06:05:31;100240.59;;;7.74;72.20
19736;BME280;32064;49.310;8.646;2022-11-28T06:07:57;100232.66;;;7.76;70.87
19736;BME280;32064;49.310;8.646;2022-11-28T06:10:22;100237.41;;;7.83;71.32
19736;BME280;32064;49.310;8.646;2022-11-28T06:12:48;100231.06;;;7.87;70.88
19736;BME280;32064;49.310;8.646;2022-11-28T06:15:13;100227.97;;;7.81;71.56
19736;BME280;32064;49.310;8.646;2022-11-28T06:17:39;100224.44;;;7.82;71.37
19736;BME280;32064;49.310;8.646;2022-11-28T06:20:05;100219.56;;;7.90;70.60
19736;BME280;32064;49.310;8.646;2022-11-28T06:22:32;100223.94;;;7.90;71.01
19736;BME280;32064;49.310;8.646;2022-11-28T06:24:57;100227.13;;;7.95;71.07
19736;BME280;32064;49.310;8.646;2022-11-28T06:27:23;100232.19;;;7.83;71.46
19736;BME280;32064;49.310;8.646;2022-11-28T06:29:48;100247.22;;;7.94;70.64
19736;BME280;32064;49.310;8.646;2022-11-28T06:32:14;100254.34;;;7.92;71.04
19736;BME280;32064;49.310;8.646;2022-11-28T06:34:39;100248.06;;;7.95;70.75
19736;BME280;32064;49.310;8.646;2022-11-28T06:37:04;100249.03;;;7.94;70.87
19736;BME280;32064;49.310;8.646;2022-11-28T06:39:30;100254.34;;;7.92;70.90
19736;BME280;32064;49.310;8.646;2022-11-28T06:41:56;100254.53;;;7.89;70.89
19736;BME280;32064;49.310;8.646;2022-11-28T06:44:22;100253.88;;;7.85;71.39
19736;BME280;32064;49.310;8.646;2022-11-28T06:46:47;100254.16;;;7.81;71.75
19736;BME280;32064;49.310;8.646;2022-11-28T06:49:13;100254.25;;;7.79;71.49
19736;BME280;32064;49.310;8.646;2022-11-28T06:51:39;100250.31;;;7.86;70.78
19736;BME280;32064;49.310;8.646;2022-11-28T06:54:05;100256.69;;;7.82;71.01
19736;BME280;32064;49.310;8.646;2022-11-28T06:56:31;100256.88;;;7.79;71.27
19736;BME280;32064;49.310;8.646;2022-11-28T06:58:57;100252.28;;;7.83;71.23
19736;BME280;32064;49.310;8.646;2022-11-28T07:01:26;100259.78;;;7.75;70.80
19736;BME280;32064;49.310;8.646;2022-11-28T07:03:52;100264.16;;;7.74;71.36
19736;BME280;32064;49.310;8.646;2022-11-28T07:06:22;100265.50;;;7.81;71.96
19736;BME280;32064;49.310;8.646;2022-11-28T07:08:49;100265.38;;;7.83;71.40
19736;BME280;32064;49.310;8.646;2022-11-28T07:11:30;100271.66;;;7.95;70.23
19736;BME280;32064;49.310;8.646;2022-11-28T07:13:56;100274.38;;;7.93;71.09
19736;BME280;32064;49.310;8.646;2022-11-28T07:16:25;100281.84;;;7.99;71.32
19736;BME280;32064;49.310;8.646;2022-11-28T07:18:51;100270.72;;;7.96;71.45
19736;BME280;32064;49.310;8.646;2022-11-28T07:21:18;100280.19;;;7.98;71.14
19736;BME280;32064;49.310;8.646;2022-11-28T07:23:44;100275.97;;;7.81;71.51
19736;BME280;32064;49.310;8.646;2022-11-28T07:26:12;100278.94;;;7.90;70.76
19736;BME280;32064;49.310;8.646;2022-11-28T07:28:38;100278.94;;;7.90;71.31
19736;BME280;32064;49.310;8.646;2022-11-28T07:31:06;100276.63;;;7.99;71.42
19736;BME280;32064;49.310;8.646;2022-11-28T07:33:33;100281.28;;;7.94;71.50
19736;BME280;32064;49.310;8.646;2022-11-28T07:36:03;100278.59;;;7.96;71.51
19736;BME280;32064;49.310;8.646;2022-11-28T07:38:29;100278.47;;;7.97;71.14
19736;BME280;32064;49.310;8.646;2022-11-28T07:41:22;100292.34;;;7.99;71.61
19736;BME280;32064;49.310;8.646;2022-11-28T07:43:48;100279.31;;;7.98;70.93
19736;BME280;32064;49.310;8.646;2022-11-28T07:46:17;100278.59;;;7.96;71.22
19736;BME280;32064;49.310;8.646;2022-11-28T07:48:44;100274.47;;;7.92;71.33
19736;BME280;32064;49.310;8.646;2022-11-28T07:51:16;100271.47;;;7.83;72.01
19736;BME280;32064;49.310;8.646;2022-11-28T07:53:42;100278.03;;;7.91;71.67
19736;BME280;32064;49.310;8.646;2022-11-28T07:56:11;100275.22;;;7.94;71.31
19736;BME280;32064;49.310;8.646;2022-11-28T07:58:40;100267.25;;;7.95;71.78
19736;BME280;32064;49.310;8.646;2022-11-28T08:01:11;100268.47;;;7.90;72.21
19736;BME280;32064;49.310;8.646;2022-11-28T08:03:37;100268.84;;;7.98;72.04
19736;BME280;32064;49.310;8.646;2022-11-28T08:06:03;100269.69;;;7.98;72.51
19736;BME280;32064;49.310;8.646;2022-11-28T08:08:30;100267.25;;;7.95;71.54
19736;BME280;32064;49.310;8.646;2022-11-28T08:10:57;100265.38;;;8.12;70.97
19736;BME280;32064;49.310;8.646;2022-11-28T08:13:23;100264.72;;;8.08;71.57
19736;BME280;32064;49.310;8.646;2022-11-28T08:15:48;100272.56;;;8.22;71.48
19736;BME280;32064;49.310;8.646;2022-11-28T08:18:13;100271.38;;;8.14;71.66
19736;BME280;32064;49.310;8.646;2022-11-28T08:20:39;100273.03;;;8.15;71.52
19736;BME280;32064;49.310;8.646;2022-11-28T08:23:04;100268.47;;;8.18;71.56
19736;BME280;32064;49.310;8.646;2022-11-28T08:25:30;100265.16;;;8.29;71.24
19736;BME280;32064;49.310;8.646;2022-11-28T08:27:55;100264.06;;;8.19;72.28
19736;BME280;32064;49.310;8.646;2022-11-28T08:30:21;100257.69;;;8.23;71.41
19736;BME280;32064;49.310;8.646;2022-11-28T08:32:47;100260.31;;;8.23;71.28
19736;BME280;32064;49.310;8.646;2022-11-28T08:35:12;100269.47;;;8.30;71.35
19736;BME280;32064;49.310;8.646;2022-11-28T08:37:38;100266.00;;;8.29;71.37
19736;BME280;32064;49.310;8.646;2022-11-28T08:40:04;100265.25;;;8.27;71.53
19736;BME280;32064;49.310;8.646;2022-11-28T08:42:29;100266.00;;;8.29;71.46
19736;BME280;32064;49.310;8.646;2022-11-28T08:44:54;100263.88;;;8.22;71.59
19736;BME280;32064;49.310;8.646;2022-11-28T08:47:20;100263.41;;;8.29;71.93
19736;BME280;32064;49.310;8.646;2022-11-28T08:49:45;100261.59;;;8.30;70.78
19736;BME280;32064;49.310;8.646;2022-11-28T08:52:10;100268.63;;;8.29;71.68
19736;BME280;32064;49.310;8.646;2022-11-28T08:54:36;100268.09;;;8.39;71.50
19736;BME280;32064;49.310;8.646;2022-11-28T08:57:02;100270.75;;;8.37;71.54
19736;BME280;32064;49.310;8.646;2022-11-28T08:59:27;100273.00;;;8.43;71.28
19736;BME280;32064;49.310;8.646;2022-11-28T09:01:53;100276.13;;;8.36;71.61
19736;BME280;32064;49.310;8.646;2022-11-28T09:04:19;100283.69;;;8.40;71.31
19736;BME280;32064;49.310;8.646;2022-11-28T09:06:45;100271.25;;;8.44;71.30
19736;BME280;32064;49.310;8.646;2022-11-28T09:09:10;100273.69;;;8.47;71.50
19736;BME280;32064;49.310;8.646;2022-11-28T09:11:37;100280.69;;;8.46;71.34
19736;BME280;32064;49.310;8.646;2022-11-28T09:14:02;100277.78;;;8.51;71.19
19736;BME280;32064;49.310;8.646;2022-11-28T09:16:28;100268.03;;;8.53;71.13
19736;BME280;32064;49.310;8.646;2022-11-28T09:18:54;100275.50;;;8.59;71.03
19736;BME280;32064;49.310;8.646;2022-11-28T09:21:21;100276.06;;;8.64;70.72
19736;BME280;32064;49.310;8.646;2022-11-28T09:23:47;100274.38;;;8.63;70.93
19736;BME280;32064;49.310;8.646;2022-11-28T09:26:18;100268.53;;;8.45;71.49
19736;BME280;32064;49.310;8.646;2022-11-28T09:28:43;100276.69;;;8.68;71.04
19736;BME280;32064;49.310;8.646;2022-11-28T09:31:10;100277.00;;;8.63;71.22
19736;BME280;32064;49.310;8.646;2022-11-28T09:33:39;100280.72;;;8.73;70.54
19736;BME280;32064;49.310;8.646;2022-11-28T09:36:13;100274.22;;;8.79;70.36
19736;BME280;32064;49.310;8.646;2022-11-28T09:38:39;100279.53;;;8.92;70.84
19736;BME280;32064;49.310;8.646;2022-11-28T09:43:54;100278.09;;;9.01;70.38
19736;BME280;32064;49.310;8.646;2022-11-28T09:46:28;100285.75;;;9.04;70.32
19736;BME280;32064;49.310;8.646;2022-11-28T09:48:59;100277.56;;;9.08;69.37
19736;BME280;32064;49.310;8.646;2022-11-28T09:51:33;100280.72;;;9.13;69.73
19736;BME280;32064;49.310;8.646;2022-11-28T09:54:18;100270.25;;;9.13;69.31
19736;BME280;32064;49.310;8.646;2022-11-28T09:56:47;100269.09;;;9.17;69.38
19736;BME280;32064;49.310;8.646;2022-11-28T09:59:23;100270.56;;;9.21;69.48
19736;BME280;32064;49.310;8.646;2022-11-28T10:01:58;100275.94;;;9.33;69.88
19736;BME280;32064;49.310;8.646;2022-11-28T10:04:36;100274.78;;;9.24;69.76
19736;BME280;32064;49.310;8.646;2022-11-28T10:12:29;100275.13;;;9.32;70.12
19736;BME280;32064;49.310;8.646;2022-11-28T10:15:19;100284.31;;;9.25;69.33
19736;BME280;32064;49.310;8.646;2022-11-28T10:20:27;100279.31;;;9.35;68.66
19736;BME280;32064;49.310;8.646;2022-11-28T10:22:59;100280.38;;;9.32;68.56
19736;BME280;32064;49.310;8.646;2022-11-28T10:25:28;100282.03;;;9.33;68.73
19736;BME280;32064;49.310;8.646;2022-11-28T10:27:56;100281.53;;;9.41;70.31
19736;BME280;32064;49.310;8.646;2022-11-28T10:30:24;100291.41;;;9.37;69.23
19736;BME280;32064;49.310;8.646;2022-11-28T10:32:56;100284.38;;;9.38;69.30
19736;BME280;32064;49.310;8.646;2022-11-28T10:35:42;100280.78;;;9.26;70.56
19736;BME280;32064;49.310;8.646;2022-11-28T10:38:11;100286.66;;;9.42;69.72
19736;BME280;32064;49.310;8.646;2022-11-28T10:40:45;100281.53;;;9.54;69.23
19736;BME280;32064;49.310;8.646;2022-11-28T10:48:33;100264.53;;;9.72;69.59
19736;BME280;32064;49.310;8.646;2022-11-28T10:56:46;100252.75;;;9.65;71.07
19736;BME280;32064;49.310;8.646;2022-11-28T11:02:21;100254.97;;;9.71;70.56
19736;BME280;32064;49.310;8.646;2022-11-28T11:04:46;100253.59;;;9.78;71.98
19736;BME280;32064;49.310;8.646;2022-11-28T11:07:28;100252.00;;;9.76;71.56
19736;BME280;32064;49.310;8.646;2022-11-28T11:12:50;100243.19;;;9.89;71.26
19736;BME280;32064;49.310;8.646;2022-11-28T11:15:31;100241.28;;;9.92;72.46
19736;BME280;32064;49.310;8.646;2022-11-28T11:18:05;100240.75;;;9.99;72.04
19736;BME280;32064;49.310;8.646;2022-11-28T11:20:43;100236.88;;;10.05;72.40
19736;BME280;32064;49.310;8.646;2022-11-28T11:23:14;100230.53;;;10.07;72.78
19736;BME280;32064;49.310;8.646;2022-11-28T11:25:46;100237.56;;;10.07;71.50
19736;BME280;32064;49.310;8.646;2022-11-28T11:31:03;100224.41;;;10.20;71.59
19736;BME280;32064;49.310;8.646;2022-11-28T11:33:34;100220.31;;;10.16;72.27
19736;BME280;32064;49.310;8.646;2022-11-28T11:36:03;100213.38;;;10.15;71.49
19736;BME280;32064;49.310;8.646;2022-11-28T11:38:32;100213.38;;;10.15;72.29
19736;BME280;32064;49.310;8.646;2022-11-28T11:41:26;100218.41;;;10.18;72.27
19736;BME280;32064;49.310;8.646;2022-11-28T11:43:53;100212.63;;;10.25;71.59
19736;BME280;32064;49.310;8.646;2022-11-28T11:46:18;100216.84;;;10.28;71.83
19736;BME280;32064;49.310;8.646;2022-11-28T11:48:46;100206.53;;;10.25;71.85
19736;BME280;32064;49.310;8.646;2022-11-28T11:51:27;100207.69;;;10.21;73.77
19736;BME280;32064;49.310;8.646;2022-11-28T11:56:37;100198.88;;;10.46;72.67
19736;BME280;32064;49.310;8.646;2022-11-28T11:59:13;100199.28;;;10.52;72.25
19736;BME280;32064;49.310;8.646;2022-11-28T12:01:42;100197.06;;;10.59;72.71
19736;BME280;32064;49.310;8.646;2022-11-28T12:04:15;100192.63;;;10.60;72.59
19736;BME280;32064;49.310;8.646;2022-11-28T12:06:49;100206.75;;;10.70;73.55
19736;BME280;32064;49.310;8.646;2022-11-28T12:09:30;100202.69;;;10.66;72.98
19736;BME280;32064;49.310;8.646;2022-11-28T12:12:10;100207.41;;;10.73;72.24
19736;BME280;32064;49.310;8.646;2022-11-28T12:14:37;100201.41;;;10.71;72.36
19736;BME280;32064;49.310;8.646;2022-11-28T12:17:22;100202.75;;;10.77;74.61
19736;BME280;32064;49.310;8.646;2022-11-28T12:22:49;100205.28;;;10.78;73.72
19736;BME280;32064;49.310;8.646;2022-11-28T12:28:19;100195.94;;;10.86;74.17
19736;BME280;32064;49.310;8.646;2022-11-28T12:33:25;100194.31;;;10.96;74.06
19736;BME280;32064;49.310;8.646;2022-11-28T12:36:24;100192.94;;;10.79;73.89
19736;BME280;32064;49.310;8.646;2022-11-28T12:38:58;100198.06;;;10.81;73.62
19736;BME280;32064;49.310;8.646;2022-11-28T12:41:56;100191.59;;;10.73;73.74
19736;BME280;32064;49.310;8.646;2022-11-28T12:49:59;100190.09;;;10.58;73.75
19736;BME280;32064;49.310;8.646;2022-11-28T12:57:55;100178.63;;;10.59;74.05
19736;BME280;32064;49.310;8.646;2022-11-28T13:00:26;100187.63;;;10.68;74.96
19736;BME280;32064;49.310;8.646;2022-11-28T13:05:37;100189.50;;;10.54;73.88
19736;BME280;32064;49.310;8.646;2022-11-28T13:13:29;100175.72;;;10.51;74.80
19736;BME280;32064;49.310;8.646;2022-11-28T13:16:10;100165.97;;;10.64;75.14
19736;BME280;32064;49.310;8.646;2022-11-28T13:18:40;100175.31;;;10.68;73.58
19736;BME280;32064;49.310;8.646;2022-11-28T13:21:18;100160.13;;;10.72;75.35
19736;BME280;32064;49.310;8.646;2022-11-28T13:26:38;100171.97;;;10.66;75.56
19736;BME280;32064;49.310;8.646;2022-11-28T13:34:32;100163.03;;;10.80;76.51
19736;BME280;32064;49.310;8.646;2022-11-28T13:37:13;100161.09;;;10.71;75.72
19736;BME280;32064;49.310;8.646;2022-11-28T13:49:45;100163.53;;;10.85;76.65
19736;BME280;32064;49.310;8.646;2022-11-28T13:54:52;100162.69;;;10.85;74.97
19736;BME280;32064;49.310;8.646;2022-11-28T13:57:25;100156.81;;;10.81;75.98
19736;BME280;32064;49.310;8.646;2022-11-28T14:04:56;100153.13;;;10.84;75.78
19736;BME280;32064;49.310;8.646;2022-11-28T14:07:29;100159.06;;;10.74;75.49
19736;BME280;32064;49.310;8.646;2022-11-28T14:24:08;100160.22;;;10.59;76.26
19736;BME280;32064;49.310;8.646;2022-11-28T14:26:39;100160.47;;;10.56;75.06
19736;BME280;32064;49.310;8.646;2022-11-28T14:29:19;100158.63;;;10.45;75.95
19736;BME280;32064;49.310;8.646;2022-11-28T14:31:46;100168.44;;;10.54;76.84
19736;BME280;32064;49.310;8.646;2022-11-28T14:39:52;100163.88;;;10.45;77.95
19736;BME280;32064;49.310;8.646;2022-11-28T14:44:52;100167.09;;;10.49;75.85
19736;BME280;32064;49.310;8.646;2022-11-28T14:49:57;100168.91;;;10.48;78.08
19736;BME280;32064;49.310;8.646;2022-11-28T14:55:12;100168.91;;;10.48;76.95
19736;BME280;32064;49.310;8.646;2022-11-28T14:58:11;100169.47;;;10.41;76.82
19736;BME280;32064;49.310;8.646;2022-11-28T15:01:08;100166.31;;;10.36;76.61
19736;BME280;32064;49.310;8.646;2022-11-28T15:04:21;100169.91;;;10.34;76.73
19736;BME280;32064;49.310;8.646;2022-11-28T15:06:40;100177.56;;;10.38;76.40
19736;BME280;32064;49.310;8.646;2022-11-28T15:09:06;100171.34;;;10.39;77.90
19736;BME280;32064;49.310;8.646;2022-11-28T15:14:24;100169.72;;;10.25;77.80
19736;BME280;32064;49.310;8.646;2022-11-28T15:16:52;100178.53;;;10.24;77.33
19736;BME280;32064;49.310;8.646;2022-11-28T15:19:23;100180.44;;;10.22;76.85
19736;BME280;32064;49.310;8.646;2022-11-28T15:21:51;100171.84;;;10.20;76.96
19736;BME280;32064;49.310;8.646;2022-11-28T15:24:34;100167.63;;;10.17;78.10
19736;BME280;32064;49.310;8.646;2022-11-28T15:29:32;100176.03;;;10.22;77.65
19736;BME280;32064;49.310;8.646;2022-11-28T15:31:58;100179.50;;;10.23;77.04
19736;BME280;32064;49.310;8.646;2022-11-28T15:34:29;100179.19;;;10.27;78.62
19736;BME280;32064;49.310;8.646;2022-11-28T15:36:57;100183.28;;;10.31;78.24
19736;BME280;32064;49.310;8.646;2022-11-28T15:39:35;100181.81;;;10.27;77.31
19736;BME280;32064;49.310;8.646;2022-11-28T15:42:22;100186.66;;;10.33;78.20
19736;BME280;32064;49.310;8.646;2022-11-28T15:44:57;100182.31;;;10.32;78.47
19736;BME280;32064;49.310;8.646;2022-11-28T15:47:23;100188.09;;;10.38;76.90
19736;BME280;32064;49.310;8.646;2022-11-28T15:50:26;100184.84;;;10.34;78.07
19736;BME280;32064;49.310;8.646;2022-11-28T15:55:24;100180.09;;;10.39;76.60
19736;BME280;32064;49.310;8.646;2022-11-28T15:57:50;100177.56;;;10.38;77.80
19736;BME280;32064;49.310;8.646;2022-11-28T16:00:17;100176.59;;;10.39;77.47
19736;BME280;32064;49.310;8.646;2022-11-28T16:02:44;100180.72;;;10.43;76.65